createdAt,value
2018-06-03T00:00:08.610Z,83.10
2018-06-03T00:02:37.298Z,82.40
2018-06-03T00:05:06.047Z,82.40
2018-06-03T00:07:35.102Z,82.80
2018-06-03T00:10:03.515Z,83.40
2018-06-03T00:12:32.567Z,83.80
2018-06-03T00:15:01.675Z,83.40
2018-06-03T00:17:30.699Z,84.10
2018-06-03T00:20:01.507Z,82.80
2018-06-03T00:22:31.242Z,82.70
2018-06-03T00:24:59.667Z,84.20
2018-06-03T00:27:28.777Z,84.50
2018-06-03T00:29:57.879Z,85.30
2018-06-03T00:32:27.414Z,83.30
2018-06-03T00:34:56.447Z,83.30
2018-06-03T00:37:25.142Z,85.10
2018-06-03T00:39:54.198Z,84.70
2018-06-03T00:42:23.262Z,82.90
2018-06-03T00:44:52.286Z,83.60
2018-06-03T00:47:21.340Z,84.80
2018-06-03T00:49:50.046Z,84.20
2018-06-03T00:52:19.872Z,84.50
2018-06-03T00:54:49.660Z,83.80
2018-06-03T00:57:18.685Z,83.80
2018-06-03T00:59:47.711Z,83.60
2018-06-03T01:02:16.448Z,83.10
2018-06-03T01:04:46.259Z,82.70
2018-06-03T01:07:16.079Z,82.40
2018-06-03T01:09:45.881Z,83.20
2018-06-03T01:12:15.779Z,82.70
2018-06-03T01:14:44.804Z,82.70
2018-06-03T01:17:13.877Z,83.30
2018-06-03T01:19:42.912Z,83.20
2018-06-03T01:22:11.995Z,82.30
2018-06-03T01:24:41.053Z,81.30
2018-06-03T01:27:10.145Z,82.60
2018-06-03T01:29:39.247Z,82.00
2018-06-03T01:32:09.195Z,82.00
2018-06-03T01:34:39.049Z,81.70
2018-06-03T01:37:08.146Z,81.70
2018-06-03T01:39:37.225Z,81.00
2018-06-03T01:42:05.596Z,80.30
2018-06-03T01:44:34.643Z,81.30
2018-06-03T01:47:04.440Z,83.20
2018-06-03T01:49:33.478Z,83.20
2018-06-03T01:52:02.502Z,84.90
2018-06-03T01:54:31.532Z,85.30
2018-06-03T01:56:59.896Z,84.80
2018-06-03T01:59:28.950Z,84.20
2018-06-03T02:01:58.001Z,83.80
2018-06-03T02:04:27.036Z,83.80
2018-06-03T02:06:56.052Z,84.10
2018-06-03T02:09:25.112Z,83.80
2018-06-03T02:11:54.151Z,83.60
2018-06-03T02:14:23.207Z,83.20
2018-06-03T02:16:52.264Z,82.40
2018-06-03T02:19:22.102Z,83.30
2018-06-03T02:21:51.493Z,83.40
2018-06-03T02:24:21.049Z,83.20
2018-06-03T02:26:50.082Z,82.80
2018-06-03T02:29:19.931Z,82.60
2018-06-03T02:31:48.682Z,82.60
2018-06-03T02:34:17.709Z,83.10
2018-06-03T02:36:46.769Z,83.30
2018-06-03T02:39:15.824Z,83.00
2018-06-03T02:41:44.883Z,84.80
2018-06-03T02:44:13.912Z,84.40
2018-06-03T02:46:42.968Z,83.90
2018-06-03T02:49:12.010Z,84.00
2018-06-03T02:51:41.048Z,83.00
2018-06-03T02:54:10.074Z,82.40
2018-06-03T02:56:39.108Z,82.50
2018-06-03T02:59:08.906Z,82.40
2018-06-03T03:01:37.941Z,82.40
2018-06-03T03:04:07.183Z,82.50
2018-06-03T03:06:36.207Z,82.00
2018-06-03T03:09:05.380Z,84.20
2018-06-03T03:11:34.695Z,84.30
2018-06-03T03:14:03.820Z,84.00
2018-06-03T03:16:32.917Z,84.40
2018-06-03T03:19:01.971Z,84.70
2018-06-03T03:21:31.962Z,83.60
2018-06-03T03:24:01.015Z,83.60
2018-06-03T03:26:30.115Z,83.80
2018-06-03T03:28:59.927Z,84.70
2018-06-03T03:31:28.685Z,84.70
2018-06-03T03:33:58.499Z,85.10
2018-06-03T03:36:28.335Z,85.50
2018-06-03T03:38:57.670Z,85.60
2018-06-03T03:41:26.851Z,85.10
2018-06-03T03:43:55.858Z,86.30
2018-06-03T03:46:25.128Z,85.70
2018-06-03T03:48:54.904Z,86.40
2018-06-03T03:51:24.744Z,85.00
2018-06-03T03:53:53.782Z,85.10
2018-06-03T03:56:26.190Z,84.80
2018-06-03T03:58:55.996Z,86.10
2018-06-03T04:01:25.818Z,87.00
2018-06-03T04:03:55.624Z,87.20
2018-06-03T04:06:25.452Z,86.60
2018-06-03T04:08:55.236Z,87.60
2018-06-03T04:11:25.045Z,86.60
2018-06-03T04:13:54.841Z,86.00
2018-06-03T04:16:23.869Z,86.00
2018-06-03T04:18:52.900Z,86.80
2018-06-03T04:21:21.929Z,86.50
2018-06-03T04:23:50.978Z,86.00
2018-06-03T04:26:20.009Z,86.70
2018-06-03T04:28:49.071Z,86.10
2018-06-03T04:31:18.102Z,85.50
2018-06-03T04:33:47.133Z,85.20
2018-06-03T04:36:16.235Z,84.70
2018-06-03T04:38:46.041Z,84.60
2018-06-03T04:41:15.110Z,84.60
2018-06-03T04:43:45.269Z,83.40
2018-06-03T04:46:14.344Z,83.40
2018-06-03T04:48:44.160Z,83.10
2018-06-03T04:51:13.270Z,83.20
2018-06-03T04:53:42.347Z,83.50
2018-06-03T04:56:11.598Z,83.80
2018-06-03T04:58:40.660Z,84.30
2018-06-03T05:01:09.726Z,83.30
2018-06-03T05:03:39.515Z,83.60
2018-06-03T05:06:09.318Z,83.60
2018-06-03T05:08:38.024Z,82.80
2018-06-03T05:11:07.821Z,81.50
2018-06-03T05:13:36.857Z,81.50
2018-06-03T05:16:05.565Z,80.60
2018-06-03T05:18:34.614Z,80.30
2018-06-03T05:21:04.407Z,80.60
2018-06-03T05:23:33.443Z,80.70
2018-06-03T05:26:02.132Z,79.60
2018-06-03T05:28:31.178Z,80.10
2018-06-03T05:31:00.989Z,82.40
2018-06-03T05:33:30.071Z,82.20
2018-06-03T05:35:59.102Z,81.90
2018-06-03T05:38:28.122Z,83.40
2018-06-03T05:40:57.157Z,83.20
2018-06-03T05:43:26.258Z,82.50
2018-06-03T05:45:55.306Z,83.90
2018-06-03T05:48:24.388Z,83.80
2018-06-03T05:50:53.478Z,83.50
2018-06-03T05:53:22.571Z,82.20
2018-06-03T05:55:51.737Z,81.20
2018-06-03T05:58:21.605Z,81.50
2018-06-03T06:00:50.380Z,81.50
2018-06-03T06:03:19.670Z,81.10
2018-06-03T06:05:48.758Z,81.30
2018-06-03T06:08:18.201Z,82.20
2018-06-03T06:10:47.259Z,82.20
2018-06-03T06:13:16.295Z,81.40
2018-06-03T06:15:45.386Z,81.30
2018-06-03T06:18:14.391Z,81.90
2018-06-03T06:20:43.103Z,81.40
2018-06-03T06:23:12.922Z,80.90
2018-06-03T06:25:42.253Z,80.90
2018-06-03T06:28:11.289Z,80.70
2018-06-03T06:30:39.992Z,81.40
2018-06-03T06:33:09.049Z,81.50
2018-06-03T06:35:38.074Z,81.10
2018-06-03T06:38:07.864Z,81.40
2018-06-03T06:40:36.919Z,81.40
2018-06-03T06:43:05.971Z,82.20
2018-06-03T06:45:35.485Z,82.30
2018-06-03T06:48:04.212Z,82.30
2018-06-03T06:50:33.393Z,81.70
2018-06-03T06:53:02.210Z,81.10
2018-06-03T06:55:31.268Z,81.20
2018-06-03T06:58:00.323Z,80.80
2018-06-03T07:00:30.485Z,79.40
2018-06-03T07:02:59.537Z,79.40
2018-06-03T07:05:28.599Z,80.30
2018-06-03T07:07:57.673Z,79.90
2018-06-03T07:10:26.767Z,77.90
2018-06-03T07:12:55.798Z,78.70
2018-06-03T07:15:24.820Z,78.70
2018-06-03T07:17:54.619Z,79.30
2018-06-03T07:20:23.702Z,79.30
2018-06-03T07:22:52.748Z,79.10
2018-06-03T07:25:21.779Z,79.60
2018-06-03T07:27:50.818Z,80.60
2018-06-03T07:30:20.295Z,80.40
2018-06-03T07:32:49.355Z,80.50
2018-06-03T07:35:18.431Z,80.10
2018-06-03T07:37:48.462Z,79.10
2018-06-03T07:40:17.143Z,79.10
2018-06-03T07:42:46.196Z,78.40
2018-06-03T07:45:15.277Z,76.70
2018-06-03T07:47:44.371Z,74.30
2018-06-03T07:50:14.205Z,75.40
2018-06-03T07:52:44.057Z,76.00
2018-06-03T07:55:13.102Z,75.90
2018-06-03T07:57:42.916Z,75.50
2018-06-03T08:00:12.747Z,76.40
2018-06-03T08:02:41.826Z,76.40
2018-06-03T08:05:11.772Z,78.50
2018-06-03T08:07:40.903Z,78.50
2018-06-03T08:10:09.949Z,78.10
2018-06-03T08:12:39.825Z,78.40
2018-06-03T08:15:08.954Z,78.40
2018-06-03T08:17:38.046Z,79.20
2018-06-03T08:20:07.249Z,79.90
2018-06-03T08:22:36.318Z,79.50
2018-06-03T08:25:05.336Z,80.60
2018-06-03T08:27:34.435Z,83.10
2018-06-03T08:30:03.559Z,82.80
2018-06-03T08:32:32.616Z,82.70
2018-06-03T08:35:01.667Z,81.80
2018-06-03T08:37:30.879Z,82.30
2018-06-03T08:40:00.677Z,83.90
2018-06-03T08:42:29.387Z,83.20
2018-06-03T08:44:59.174Z,85.20
2018-06-03T08:48:00.470Z,84.50
2018-06-03T08:50:29.230Z,86.30
2018-06-03T08:52:58.345Z,87.30
2018-06-03T08:55:27.206Z,87.20
2018-06-03T08:57:56.313Z,87.00
2018-06-03T09:00:25.444Z,87.00
2018-06-03T09:02:54.571Z,86.70
2018-06-03T09:05:23.666Z,87.30
2018-06-03T09:07:53.960Z,87.50
2018-06-03T09:10:22.814Z,88.20
2018-06-03T09:12:51.851Z,87.00
2018-06-03T09:15:20.626Z,87.30
2018-06-03T09:17:49.808Z,86.20
2018-06-03T09:20:19.003Z,86.00
2018-06-03T09:22:47.841Z,85.70
2018-06-03T09:25:16.987Z,86.30
2018-06-03T09:27:45.837Z,86.20
2018-06-03T09:30:14.990Z,84.10
2018-06-03T09:32:44.152Z,80.30
2018-06-03T09:35:13.012Z,76.30
2018-06-03T09:37:41.784Z,72.60
2018-06-03T09:40:10.634Z,70.20
2018-06-03T09:45:08.419Z,76.30
2018-06-03T09:47:37.224Z,79.00
2018-06-03T09:50:06.167Z,81.80
2018-06-03T09:52:35.269Z,82.60
2018-06-03T09:55:04.155Z,83.90
2018-06-03T09:57:33.235Z,84.50
2018-06-03T10:00:02.676Z,84.70
2018-06-03T10:02:31.791Z,85.30
2018-06-03T10:05:01.438Z,86.00
2018-06-03T10:07:30.373Z,87.20
2018-06-03T10:09:59.182Z,86.50
2018-06-03T10:12:28.022Z,86.60
2018-06-03T10:14:56.841Z,86.80
2018-06-03T10:17:25.727Z,86.00
2018-06-03T10:19:54.784Z,84.80
2018-06-03T10:22:23.825Z,84.20
2018-06-03T10:24:52.626Z,83.80
2018-06-03T10:27:21.559Z,84.30
2018-06-03T10:29:50.437Z,84.90
2018-06-03T10:32:19.225Z,85.10
2018-06-03T10:34:48.158Z,84.50
2018-06-03T10:37:16.945Z,84.10
2018-06-03T10:39:45.941Z,82.00
2018-06-03T10:42:14.865Z,81.30
2018-06-03T10:44:43.932Z,81.20
2018-06-03T10:47:13.039Z,79.30
2018-06-03T10:49:42.226Z,80.20
2018-06-03T10:52:11.313Z,80.20
2018-06-03T10:54:40.370Z,81.10
2018-06-03T10:57:10.536Z,80.50
2018-06-03T10:59:39.987Z,81.20
2018-06-03T11:02:08.973Z,81.20
2018-06-03T11:04:37.789Z,79.90
2018-06-03T11:07:06.806Z,79.50
2018-06-03T11:09:35.669Z,80.30
2018-06-03T11:12:04.580Z,79.90
2018-06-03T11:14:33.363Z,78.10
2018-06-03T11:17:02.162Z,77.20
2018-06-03T11:19:31.052Z,77.00
2018-06-03T11:21:59.845Z,78.50
2018-06-03T11:24:28.721Z,77.70
2018-06-03T11:29:26.245Z,77.50
2018-06-03T11:31:55.287Z,76.90
2018-06-03T11:34:24.262Z,76.00
2018-06-03T11:36:53.583Z,76.90
2018-06-03T11:39:22.978Z,79.50
2018-06-03T11:41:52.275Z,77.50
2018-06-03T11:44:21.469Z,75.40
2018-06-03T11:46:50.742Z,75.00
2018-06-03T11:49:19.710Z,76.00
2018-06-03T11:51:48.778Z,77.30
2018-06-03T11:54:18.898Z,76.30
2018-06-03T11:56:59.253Z,76.20
2018-06-03T11:59:46.843Z,77.90
2018-06-03T12:02:18.084Z,79.10
2018-06-03T12:04:47.252Z,78.20
2018-06-03T12:07:16.100Z,76.80
2018-06-03T12:09:44.968Z,75.30
2018-06-03T12:12:14.107Z,75.30
2018-06-03T12:14:42.972Z,75.70
2018-06-03T12:17:11.757Z,74.80
2018-06-03T12:19:40.558Z,73.50
2018-06-03T12:22:09.452Z,72.20
2018-06-03T12:24:38.292Z,71.20
2018-06-03T12:27:07.040Z,71.10
2018-06-03T12:29:36.198Z,71.40
2018-06-03T12:32:05.053Z,71.00
2018-06-03T12:34:33.841Z,71.10
2018-06-03T12:37:03.091Z,71.30
2018-06-03T12:39:32.377Z,72.30
2018-06-03T12:42:01.715Z,72.60
2018-06-03T12:44:30.733Z,71.70
2018-06-03T12:46:59.954Z,71.30
2018-06-03T12:49:29.306Z,72.00
2018-06-03T12:51:58.445Z,70.50
2018-06-03T12:54:27.430Z,69.80
2018-06-03T12:56:56.736Z,67.90
2018-06-03T13:04:22.648Z,67.00
2018-06-03T13:06:51.505Z,66.00
2018-06-03T13:11:48.750Z,65.30
2018-06-03T13:14:17.625Z,65.90
2018-06-03T13:16:46.538Z,67.80
2018-06-03T13:19:15.992Z,65.60
2018-06-03T13:21:44.796Z,65.00
2018-06-03T13:24:13.946Z,65.50
2018-06-03T13:26:43.204Z,64.90
2018-06-03T13:29:12.237Z,65.40
2018-06-03T13:31:41.242Z,65.70
2018-06-03T13:34:10.242Z,66.20
2018-06-03T13:36:39.631Z,65.30
2018-06-03T13:39:09.043Z,66.20
2018-06-03T13:41:38.424Z,66.40
2018-06-03T13:44:07.276Z,66.90
2018-06-03T13:46:36.337Z,65.90
2018-06-03T13:49:05.598Z,66.10
2018-06-03T13:51:34.395Z,65.40
2018-06-03T13:54:03.170Z,65.60
2018-06-03T13:56:32.312Z,64.50
2018-06-03T13:59:01.105Z,64.60
2018-06-03T14:01:29.888Z,65.00
2018-06-03T14:03:58.688Z,64.60
2018-06-03T14:06:27.808Z,64.60
2018-06-03T14:08:56.607Z,65.50
2018-06-03T14:13:54.909Z,65.70
2018-06-03T14:16:23.653Z,65.80
2018-06-03T14:18:53.107Z,66.10
2018-06-03T14:21:21.892Z,65.70
2018-06-03T14:23:50.838Z,65.50
2018-06-03T14:26:20.077Z,63.60
2018-06-03T14:28:48.967Z,64.10
2018-06-03T14:31:18.586Z,63.40
2018-06-03T14:33:47.877Z,63.30
2018-06-03T14:36:16.775Z,62.80
2018-06-03T14:38:45.827Z,63.00
2018-06-03T14:41:15.077Z,62.50
2018-06-03T14:43:43.980Z,62.30
2018-06-03T14:46:13.968Z,62.00
2018-06-03T14:48:42.851Z,62.80
2018-06-03T14:51:11.611Z,61.10
2018-06-03T14:53:40.425Z,60.20
2018-06-03T14:56:09.165Z,60.40
2018-06-03T14:58:37.955Z,60.80
2018-06-03T15:01:07.058Z,60.40
2018-06-03T15:03:35.859Z,59.90
2018-06-03T15:06:04.623Z,59.50
2018-06-03T15:08:33.751Z,58.90
2018-06-03T15:11:02.841Z,60.50
2018-06-03T15:13:32.011Z,61.20
2018-06-03T15:18:29.546Z,60.20
2018-06-03T15:20:58.487Z,59.10
2018-06-03T15:23:28.250Z,59.90
2018-06-03T15:25:57.830Z,60.60
2018-06-03T15:28:27.065Z,61.30
2018-06-03T15:30:56.027Z,59.80
2018-06-03T15:33:25.004Z,59.30
2018-06-03T15:35:53.930Z,60.30
2018-06-03T15:38:22.828Z,60.20
2018-06-03T15:40:52.140Z,60.00
2018-06-03T15:43:20.958Z,61.60
2018-06-03T15:45:49.940Z,62.50
2018-06-03T15:48:18.827Z,62.70
2018-06-03T15:50:48.049Z,62.70
2018-06-03T15:53:16.850Z,62.70
2018-06-03T15:55:45.976Z,61.70
2018-06-03T15:58:14.783Z,62.00
2018-06-03T16:00:43.860Z,62.20
2018-06-03T16:03:12.864Z,62.20
2018-06-03T16:05:42.109Z,62.50
2018-06-03T16:08:11.241Z,63.70
2018-06-03T16:10:40.368Z,65.50
2018-06-03T16:13:09.420Z,66.30
2018-06-03T16:15:38.336Z,67.50
2018-06-03T16:18:07.472Z,68.20
2018-06-03T16:20:36.378Z,68.40
2018-06-03T16:23:05.348Z,67.80
2018-06-03T16:25:35.246Z,68.40
2018-06-03T16:28:04.208Z,69.30
2018-06-03T16:30:33.214Z,69.70
2018-06-03T16:33:02.289Z,69.70
2018-06-03T16:35:31.895Z,70.00
2018-06-03T16:38:00.915Z,70.00
2018-06-03T16:40:29.798Z,70.20
2018-06-03T16:42:58.859Z,70.50
2018-06-03T16:45:27.747Z,70.00
2018-06-03T16:47:56.506Z,70.00
2018-06-03T16:50:26.028Z,69.70
2018-06-03T16:52:56.863Z,69.70
2018-06-03T16:55:25.997Z,69.50
2018-06-03T16:57:54.861Z,70.60
2018-06-03T17:00:24.153Z,69.80
2018-06-03T17:02:53.046Z,69.80
2018-06-03T17:05:21.836Z,69.90
2018-06-03T17:07:50.635Z,70.60
2018-06-03T17:10:20.266Z,70.60
2018-06-03T17:12:49.113Z,70.30
2018-06-03T17:15:18.431Z,70.50
2018-06-03T17:17:47.394Z,70.50
2018-06-03T17:20:16.319Z,71.00
2018-06-03T17:22:45.479Z,71.20
2018-06-03T17:25:14.828Z,71.20
2018-06-03T17:27:43.918Z,71.50
2018-06-03T17:30:12.960Z,71.30
2018-06-03T17:32:42.110Z,71.00
2018-06-03T17:35:11.276Z,71.00
2018-06-03T17:37:40.084Z,71.10
2018-06-03T17:40:08.854Z,71.30
2018-06-03T17:42:38.010Z,71.50
2018-06-03T17:45:07.494Z,71.90
2018-06-03T17:47:36.326Z,71.70
2018-06-03T17:50:05.934Z,71.90
2018-06-03T17:52:35.033Z,72.30
2018-06-03T17:55:04.569Z,72.60
2018-06-03T17:57:33.731Z,72.90
2018-06-03T18:00:03.286Z,73.10
2018-06-03T18:02:32.135Z,73.10
2018-06-03T18:05:01.201Z,73.50
2018-06-03T18:07:30.035Z,74.20
2018-06-03T18:09:59.191Z,74.40
2018-06-03T18:12:28.108Z,74.30
2018-06-03T18:14:57.141Z,75.10
2018-06-03T18:17:26.222Z,75.50
2018-06-03T18:19:55.501Z,75.60
2018-06-03T18:22:24.819Z,75.90
2018-06-03T18:24:53.901Z,76.00
2018-06-03T18:27:22.993Z,75.60
2018-06-03T18:29:52.002Z,75.60
2018-06-03T18:32:20.988Z,75.70
2018-06-03T18:34:50.422Z,75.60
2018-06-03T18:37:19.408Z,75.60
2018-06-03T18:39:48.387Z,75.90
2018-06-03T18:42:17.554Z,76.00
2018-06-03T18:44:46.390Z,76.40
2018-06-03T18:47:15.632Z,76.00
2018-06-03T18:49:44.559Z,76.00
2018-06-03T18:52:13.629Z,76.20
2018-06-03T18:54:42.551Z,76.00
2018-06-03T18:57:11.607Z,76.40
2018-06-03T18:59:40.595Z,76.70
2018-06-03T19:02:09.794Z,77.00
2018-06-03T19:04:38.920Z,77.20
2018-06-03T19:07:08.097Z,76.80
2018-06-03T19:09:37.644Z,76.60
2018-06-03T19:12:06.536Z,77.20
2018-06-03T19:14:35.607Z,77.30
2018-06-03T19:17:04.723Z,77.70
2018-06-03T19:19:33.953Z,77.70
2018-06-03T19:22:03.019Z,78.00
2018-06-03T19:24:32.041Z,78.40
2018-06-03T19:27:01.001Z,78.50
2018-06-03T19:29:29.951Z,78.70
2018-06-03T19:31:58.877Z,78.70
2018-06-03T19:34:27.850Z,78.30
2018-06-03T19:36:57.456Z,78.30
2018-06-03T19:39:26.281Z,78.50
2018-06-03T19:41:55.170Z,78.90
2018-06-03T19:44:24.059Z,79.10
2018-06-03T19:46:52.942Z,79.30
2018-06-03T19:49:21.879Z,79.20
2018-06-03T19:51:50.691Z,79.00
2018-06-03T19:54:19.562Z,79.10
2018-06-03T19:59:17.230Z,79.10
2018-06-03T20:01:46.178Z,79.60
2018-06-03T20:04:15.213Z,79.70
2018-06-03T20:06:44.456Z,79.80
2018-06-03T20:09:13.441Z,80.00
2018-06-03T20:11:43.417Z,80.40
2018-06-03T20:14:12.686Z,80.80
2018-06-03T20:16:41.751Z,80.90
2018-06-03T20:19:11.114Z,80.90
2018-06-03T20:21:40.354Z,81.00
2018-06-03T20:24:09.685Z,81.00
2018-06-03T20:26:38.669Z,80.90
2018-06-03T20:29:07.892Z,80.90
2018-06-03T20:31:36.845Z,80.70
2018-06-03T20:34:06.104Z,80.60
2018-06-03T20:36:35.000Z,80.60
2018-06-03T20:39:06.247Z,80.90
2018-06-03T20:41:35.327Z,80.50
2018-06-03T20:44:04.205Z,80.60
2018-06-03T20:46:33.203Z,81.00
2018-06-03T20:49:02.079Z,81.30
2018-06-03T20:51:30.966Z,81.60
2018-06-03T20:53:59.827Z,81.70
2018-06-03T20:56:28.996Z,82.20
2018-06-03T20:58:57.842Z,82.00
2018-06-03T21:01:26.741Z,82.00
2018-06-03T21:03:55.603Z,82.00
2018-06-03T21:06:24.730Z,82.20
2018-06-03T21:08:53.959Z,82.30
2018-06-03T21:11:23.020Z,81.70
2018-06-03T21:13:51.967Z,81.80
2018-06-03T21:16:20.814Z,82.10
2018-06-03T21:18:50.095Z,82.30
2018-06-03T21:23:47.840Z,82.70
2018-06-03T21:26:16.632Z,82.80
2018-06-03T21:28:45.461Z,82.90
2018-06-03T21:31:14.282Z,82.40
2018-06-03T21:33:43.147Z,83.00
2018-06-03T21:36:11.949Z,83.20
2018-06-03T21:38:41.415Z,82.50
2018-06-03T21:41:10.417Z,82.60
2018-06-03T21:43:39.211Z,83.10
2018-06-03T21:48:36.581Z,83.70
2018-06-03T21:51:05.452Z,84.20
2018-06-03T21:53:34.255Z,84.20
2018-06-03T21:56:03.065Z,84.10
2018-06-03T21:58:32.310Z,84.20
2018-06-03T22:01:01.337Z,84.30
2018-06-03T22:03:30.179Z,84.90
2018-06-03T22:05:59.099Z,85.20
2018-06-03T22:08:28.453Z,85.20
2018-06-03T22:10:57.808Z,85.40
2018-06-03T22:13:26.644Z,85.60
2018-06-03T22:15:55.494Z,86.00
2018-06-03T22:18:24.384Z,86.20
2018-06-03T22:20:53.430Z,86.20
2018-06-03T22:23:22.195Z,86.20
2018-06-03T22:25:51.007Z,86.20
2018-06-03T22:28:20.104Z,86.60
2018-06-03T22:30:48.934Z,86.80
2018-06-03T22:33:17.703Z,86.80
2018-06-03T22:35:46.532Z,87.00
2018-06-03T22:38:15.406Z,87.10
2018-06-03T22:43:12.632Z,87.40
2018-06-03T22:45:41.499Z,87.70
2018-06-03T22:48:10.612Z,87.80
2018-06-03T22:50:39.831Z,87.70
2018-06-03T22:53:08.835Z,88.10
2018-06-03T22:55:44.227Z,88.20
2018-06-03T22:58:13.078Z,88.40
2018-06-03T23:00:42.269Z,88.60
2018-06-03T23:03:16.298Z,88.80
2018-06-03T23:05:45.176Z,89.10
2018-06-03T23:08:14.307Z,89.50
2018-06-03T23:10:43.158Z,89.40
2018-06-03T23:13:12.381Z,89.40
2018-06-03T23:15:41.596Z,88.20
2018-06-03T23:18:10.451Z,88.70
2018-06-03T23:20:39.682Z,88.80
2018-06-03T23:23:08.849Z,88.20
2018-06-03T23:28:06.165Z,89.00
2018-06-03T23:30:34.957Z,89.20
2018-06-03T23:33:04.182Z,89.00
2018-06-03T23:35:32.903Z,88.70
2018-06-03T23:38:02.321Z,89.00
2018-06-03T23:40:31.069Z,88.70
2018-06-03T23:42:59.827Z,89.20
2018-06-03T23:45:28.653Z,88.90
2018-06-03T23:47:57.452Z,88.90
2018-06-03T23:50:26.201Z,89.30
2018-06-03T23:52:54.968Z,88.90
2018-06-03T23:55:23.890Z,89.20
2018-06-03T23:57:52.778Z,89.60
